createdAt,value
2018-01-22T00:00:07.791Z,0.00
2018-01-22T00:01:07.796Z,0.00
2018-01-22T00:02:07.802Z,0.00
2018-01-22T00:03:07.810Z,0.00
2018-01-22T00:04:07.815Z,0.00
2018-01-22T00:05:07.820Z,0.00
2018-01-22T00:06:07.826Z,0.00
2018-01-22T00:07:07.832Z,0.00
2018-01-22T00:08:07.839Z,0.00
2018-01-22T00:09:07.844Z,0.00
2018-01-22T00:10:07.851Z,0.00
2018-01-22T00:11:07.855Z,0.00
2018-01-22T00:12:07.865Z,0.00
2018-01-22T00:13:07.867Z,0.00
2018-01-22T00:14:07.873Z,0.00
2018-01-22T00:15:07.879Z,0.00
2018-01-22T00:16:07.885Z,0.00
2018-01-22T00:17:07.890Z,0.00
2018-01-22T00:18:07.896Z,0.00
2018-01-22T00:19:07.902Z,0.00
2018-01-22T00:20:07.909Z,0.00
2018-01-22T00:21:07.913Z,0.00
2018-01-22T00:22:07.921Z,0.00
2018-01-22T00:23:07.926Z,0.00
2018-01-22T00:24:07.930Z,0.00
2018-01-22T00:25:07.936Z,0.00
2018-01-22T00:26:07.945Z,0.00
2018-01-22T00:27:07.954Z,0.00
2018-01-22T00:28:07.957Z,0.00
2018-01-22T00:29:07.961Z,0.00
2018-01-22T00:30:07.967Z,0.00
2018-01-22T00:31:07.973Z,0.00
2018-01-22T00:32:07.977Z,0.00
2018-01-22T00:33:07.983Z,0.00
2018-01-22T00:34:07.991Z,0.00
2018-01-22T00:35:07.996Z,0.00
2018-01-22T00:36:08.002Z,0.00
2018-01-22T00:37:08.010Z,0.00
2018-01-22T00:38:08.014Z,0.00
2018-01-22T00:39:08.022Z,0.00
2018-01-22T00:40:08.025Z,0.00
2018-01-22T00:41:08.031Z,0.00
2018-01-22T00:42:08.036Z,0.00
2018-01-22T00:43:08.043Z,0.00
2018-01-22T00:44:08.050Z,0.00
2018-01-22T00:45:08.055Z,0.00
2018-01-22T00:46:08.060Z,0.00
2018-01-22T00:47:08.067Z,0.00
2018-01-22T00:48:08.073Z,0.00
2018-01-22T00:49:08.080Z,0.00
2018-01-22T00:50:08.083Z,0.00
2018-01-22T00:51:08.090Z,0.00
2018-01-22T00:52:08.097Z,0.00
2018-01-22T00:53:08.107Z,0.00
2018-01-22T00:54:08.108Z,0.00
2018-01-22T00:55:08.114Z,0.00
2018-01-22T00:56:08.122Z,0.00
2018-01-22T00:57:08.124Z,0.00
2018-01-22T00:58:08.130Z,0.00
2018-01-22T00:59:08.137Z,0.00
2018-01-22T01:00:08.143Z,0.00
2018-01-22T01:01:08.150Z,0.00
2018-01-22T01:02:08.154Z,0.00
2018-01-22T01:03:08.160Z,0.00
2018-01-22T01:04:08.165Z,0.00
2018-01-22T01:05:08.175Z,0.00
2018-01-22T01:06:08.176Z,0.00
2018-01-22T01:07:08.184Z,0.00
2018-01-22T01:08:08.188Z,0.00
2018-01-22T01:09:08.195Z,0.00
2018-01-22T01:10:08.201Z,0.00
2018-01-22T01:11:08.205Z,0.00
2018-01-22T01:12:08.213Z,0.00
2018-01-22T01:13:08.217Z,0.00
2018-01-22T01:14:08.225Z,0.00
2018-01-22T01:15:08.229Z,0.00
2018-01-22T01:16:08.237Z,0.00
2018-01-22T01:17:08.240Z,0.00
2018-01-22T01:18:08.249Z,0.00
2018-01-22T01:19:08.252Z,0.00
2018-01-22T01:20:08.259Z,0.00
2018-01-22T01:21:08.266Z,0.00
2018-01-22T01:22:08.272Z,0.00
2018-01-22T01:23:08.276Z,0.00
2018-01-22T01:24:08.281Z,0.00
2018-01-22T01:25:08.288Z,0.00
2018-01-22T01:26:08.292Z,0.00
2018-01-22T01:27:08.299Z,0.00
2018-01-22T01:28:08.306Z,0.00
2018-01-22T01:29:08.310Z,0.00
2018-01-22T01:30:08.318Z,0.00
2018-01-22T01:31:08.322Z,0.00
2018-01-22T01:32:08.331Z,0.00
2018-01-22T01:33:08.335Z,0.00
2018-01-22T01:34:08.342Z,0.00
2018-01-22T01:35:08.347Z,0.00
2018-01-22T01:36:08.357Z,0.00
2018-01-22T01:37:08.359Z,0.00
2018-01-22T01:38:08.365Z,0.00
2018-01-22T01:39:08.372Z,0.00
2018-01-22T01:40:08.377Z,0.00
2018-01-22T01:41:08.382Z,0.00
2018-01-22T01:42:08.388Z,0.00
2018-01-22T01:43:08.395Z,0.00
2018-01-22T01:44:08.402Z,0.00
2018-01-22T01:45:08.408Z,0.00
2018-01-22T01:46:08.413Z,0.00
2018-01-22T01:47:08.422Z,0.00
2018-01-22T01:48:08.424Z,0.00
2018-01-22T01:49:08.430Z,0.00
2018-01-22T01:50:08.436Z,0.00
2018-01-22T01:51:08.442Z,0.00
2018-01-22T01:52:08.448Z,0.00
2018-01-22T01:53:08.453Z,0.00
2018-01-22T01:54:08.458Z,0.00
2018-01-22T01:55:08.465Z,0.00
2018-01-22T01:56:08.472Z,0.00
2018-01-22T01:57:08.478Z,0.00
2018-01-22T01:58:08.486Z,0.00
2018-01-22T01:59:08.490Z,0.00
2018-01-22T02:00:08.506Z,0.00
2018-01-22T02:01:08.501Z,0.00
2018-01-22T02:02:08.506Z,0.00
2018-01-22T02:03:08.513Z,0.00
2018-01-22T02:04:08.519Z,0.00
2018-01-22T02:05:08.525Z,0.00
2018-01-22T02:06:08.532Z,0.00
2018-01-22T02:07:08.539Z,0.00
2018-01-22T02:08:08.543Z,0.00
2018-01-22T02:09:08.552Z,0.00
2018-01-22T02:10:08.556Z,0.00
2018-01-22T02:11:08.562Z,0.00
2018-01-22T02:12:08.567Z,0.00
2018-01-22T02:13:08.573Z,0.00
2018-01-22T02:14:08.579Z,0.00
2018-01-22T02:15:08.585Z,0.00
2018-01-22T02:16:08.591Z,0.00
2018-01-22T02:17:08.598Z,0.00
2018-01-22T02:18:08.602Z,0.00
2018-01-22T02:19:08.609Z,0.00
2018-01-22T02:20:08.616Z,0.00
2018-01-22T02:21:08.622Z,0.00
2018-01-22T02:22:08.627Z,0.00
2018-01-22T02:23:08.633Z,0.00
2018-01-22T02:24:08.641Z,0.00
2018-01-22T02:25:08.649Z,0.00
2018-01-22T02:26:08.655Z,0.00
2018-01-22T02:27:08.657Z,0.00
2018-01-22T02:28:08.664Z,0.00
2018-01-22T02:29:08.670Z,0.00
2018-01-22T02:30:08.677Z,0.00
2018-01-22T02:31:08.682Z,0.00
2018-01-22T02:32:08.689Z,0.00
2018-01-22T02:33:08.697Z,0.00
2018-01-22T02:34:08.706Z,0.00
2018-01-22T02:35:08.707Z,0.00
2018-01-22T02:36:08.714Z,0.00
2018-01-22T02:37:08.718Z,0.00
2018-01-22T02:38:08.725Z,0.00
2018-01-22T02:39:08.731Z,0.00
2018-01-22T02:40:08.739Z,0.00
2018-01-22T02:41:08.742Z,0.00
2018-01-22T02:42:08.751Z,0.00
2018-01-22T02:43:08.757Z,0.00
2018-01-22T02:44:08.766Z,0.00
2018-01-22T02:45:08.767Z,0.00
2018-01-22T02:46:08.775Z,0.00
2018-01-22T02:47:08.781Z,0.00
2018-01-22T02:48:08.787Z,0.00
2018-01-22T02:49:08.792Z,0.00
2018-01-22T02:50:08.801Z,0.00
2018-01-22T02:51:08.805Z,0.00
2018-01-22T02:52:08.822Z,0.00
2018-01-22T02:53:08.817Z,0.00
2018-01-22T02:54:08.823Z,0.00
2018-01-22T02:55:08.830Z,0.00
2018-01-22T02:56:08.841Z,0.00
2018-01-22T02:57:08.841Z,0.00
2018-01-22T02:58:08.848Z,0.00
2018-01-22T02:59:08.854Z,0.00
2018-01-22T03:00:08.860Z,0.00
2018-01-22T03:01:08.866Z,0.00
2018-01-22T03:02:08.873Z,0.00
2018-01-22T03:03:08.879Z,0.00
2018-01-22T03:04:08.885Z,0.00
2018-01-22T03:05:08.890Z,0.00
2018-01-22T03:06:08.896Z,0.00
2018-01-22T03:07:08.902Z,0.00
2018-01-22T03:08:08.911Z,0.00
2018-01-22T03:09:08.913Z,0.00
2018-01-22T03:10:08.920Z,0.00
2018-01-22T03:11:08.925Z,0.00
2018-01-22T03:12:08.932Z,0.00
2018-01-22T03:13:08.936Z,0.00
2018-01-22T03:14:08.942Z,0.00
2018-01-22T03:15:08.948Z,0.00
2018-01-22T03:16:08.954Z,0.00
2018-01-22T03:17:08.961Z,0.00
2018-01-22T03:18:08.968Z,0.00
2018-01-22T03:19:08.973Z,0.00
2018-01-22T03:20:08.978Z,0.00
2018-01-22T03:21:08.984Z,0.00
2018-01-22T03:22:08.994Z,0.00
2018-01-22T03:23:08.998Z,0.00
2018-01-22T03:24:09.003Z,0.00
2018-01-22T03:25:09.008Z,0.00
2018-01-22T03:26:09.013Z,0.00
2018-01-22T03:27:09.019Z,0.00
2018-01-22T03:28:09.027Z,0.00
2018-01-22T03:29:09.034Z,0.00
2018-01-22T03:30:09.040Z,0.00
2018-01-22T03:31:09.045Z,0.00
2018-01-22T03:32:09.050Z,0.00
2018-01-22T03:33:09.056Z,0.00
2018-01-22T03:34:09.063Z,0.00
2018-01-22T03:35:09.068Z,0.00
2018-01-22T03:36:09.074Z,0.00
2018-01-22T03:37:09.079Z,0.00
2018-01-22T03:38:09.087Z,0.00
2018-01-22T03:39:09.091Z,0.00
2018-01-22T03:40:09.100Z,0.00
2018-01-22T03:41:09.102Z,0.00
2018-01-22T03:42:09.110Z,0.00
2018-01-22T03:43:09.120Z,0.00
2018-01-22T03:44:09.123Z,0.00
2018-01-22T03:45:09.128Z,0.00
2018-01-22T03:46:09.134Z,0.00
2018-01-22T03:47:09.142Z,0.00
2018-01-22T03:48:09.147Z,0.00
2018-01-22T03:49:09.154Z,0.00
2018-01-22T03:50:09.160Z,0.00
2018-01-22T03:51:09.170Z,0.00
2018-01-22T03:52:09.175Z,0.00
2018-01-22T03:53:09.178Z,0.00
2018-01-22T03:54:09.185Z,0.00
2018-01-22T03:55:09.192Z,0.00
2018-01-22T03:56:09.203Z,0.00
2018-01-22T03:57:09.204Z,0.00
2018-01-22T03:58:09.211Z,0.00
2018-01-22T03:59:09.218Z,0.00
2018-01-22T04:00:09.224Z,0.00
2018-01-22T04:01:09.230Z,0.00
2018-01-22T04:02:09.237Z,0.00
2018-01-22T04:03:09.246Z,0.00
2018-01-22T04:04:09.249Z,0.00
2018-01-22T04:05:09.255Z,0.00
2018-01-22T04:06:09.261Z,0.00
2018-01-22T04:07:09.269Z,0.00
2018-01-22T04:08:09.275Z,0.00
2018-01-22T04:09:09.282Z,0.00
2018-01-22T04:10:09.288Z,0.00
2018-01-22T04:11:09.294Z,0.00
2018-01-22T04:12:09.301Z,0.00
2018-01-22T04:13:09.306Z,0.00
2018-01-22T04:14:09.317Z,0.00
2018-01-22T04:15:09.320Z,0.00
2018-01-22T04:16:09.326Z,0.00
2018-01-22T04:17:09.331Z,0.00
2018-01-22T04:18:09.338Z,0.00
2018-01-22T04:19:09.344Z,0.00
2018-01-22T04:20:09.351Z,0.00
2018-01-22T04:21:09.357Z,0.00
2018-01-22T04:22:09.365Z,0.00
2018-01-22T04:23:09.371Z,0.00
2018-01-22T04:24:09.377Z,0.00
2018-01-22T04:25:09.382Z,0.00
2018-01-22T04:26:09.389Z,0.00
2018-01-22T04:27:09.394Z,0.00
2018-01-22T04:28:09.401Z,0.00
2018-01-22T04:29:09.407Z,0.00
2018-01-22T04:30:09.413Z,0.00
2018-01-22T04:31:09.420Z,0.00
2018-01-22T04:32:09.428Z,0.00
2018-01-22T04:33:09.433Z,0.00
2018-01-22T04:34:09.439Z,0.00
2018-01-22T04:35:09.446Z,0.00
2018-01-22T04:36:09.453Z,0.00
2018-01-22T04:37:09.460Z,0.00
2018-01-22T04:38:09.464Z,0.00
2018-01-22T04:39:09.471Z,0.00
2018-01-22T04:40:09.477Z,0.00
2018-01-22T04:41:09.483Z,0.00
2018-01-22T04:42:09.490Z,0.00
2018-01-22T04:43:09.547Z,0.00
2018-01-22T04:44:09.502Z,0.00
2018-01-22T04:45:09.508Z,0.00
2018-01-22T04:46:09.514Z,0.00
2018-01-22T04:47:09.521Z,0.00
2018-01-22T04:48:09.527Z,0.00
2018-01-22T04:49:09.532Z,0.00
2018-01-22T04:50:09.539Z,0.00
2018-01-22T04:51:09.545Z,0.00
2018-01-22T04:52:09.552Z,0.00
2018-01-22T04:53:09.558Z,0.00
2018-01-22T04:54:09.564Z,0.00
2018-01-22T04:55:09.575Z,0.00
2018-01-22T04:56:09.582Z,0.00
2018-01-22T04:57:09.582Z,0.00
2018-01-22T04:58:09.587Z,0.00
2018-01-22T04:59:09.595Z,0.00
2018-01-22T05:00:09.602Z,0.00
2018-01-22T05:01:09.607Z,0.00
2018-01-22T05:02:09.613Z,0.00
2018-01-22T05:03:09.645Z,0.00
2018-01-22T05:04:09.634Z,0.00
2018-01-22T05:05:09.631Z,0.00
2018-01-22T05:06:09.637Z,0.00
2018-01-22T05:07:09.643Z,0.00
2018-01-22T05:08:09.653Z,0.00
2018-01-22T05:09:09.655Z,0.00
2018-01-22T05:10:09.662Z,0.00
2018-01-22T05:11:09.669Z,0.00
2018-01-22T05:12:09.676Z,0.00
2018-01-22T05:13:09.679Z,0.00
2018-01-22T05:14:09.689Z,0.00
2018-01-22T05:15:09.692Z,0.00
2018-01-22T05:16:09.700Z,0.00
2018-01-22T05:17:09.705Z,0.00
2018-01-22T05:18:09.711Z,0.00
2018-01-22T05:19:09.718Z,0.00
2018-01-22T05:20:09.724Z,0.00
2018-01-22T05:21:09.730Z,0.00
2018-01-22T05:22:09.738Z,0.00
2018-01-22T05:23:09.742Z,0.00
2018-01-22T05:24:09.748Z,0.00
2018-01-22T05:25:09.755Z,0.00
2018-01-22T05:26:09.760Z,0.00
2018-01-22T05:27:09.768Z,0.00
2018-01-22T05:28:09.774Z,0.00
2018-01-22T05:29:09.780Z,0.00
2018-01-22T05:30:09.785Z,0.00
2018-01-22T05:31:09.792Z,0.00
2018-01-22T05:32:09.798Z,0.00
2018-01-22T05:33:09.803Z,0.00
2018-01-22T05:34:09.810Z,0.00
2018-01-22T05:35:09.816Z,0.00
2018-01-22T05:36:09.822Z,0.00
2018-01-22T05:37:09.827Z,0.00
2018-01-22T05:38:09.836Z,0.00
2018-01-22T05:39:09.841Z,0.00
2018-01-22T05:40:09.848Z,0.00
2018-01-22T05:41:09.852Z,0.00
2018-01-22T05:42:09.858Z,0.00
2018-01-22T05:43:09.866Z,0.00
2018-01-22T05:44:09.872Z,0.00
2018-01-22T05:45:09.876Z,0.00
2018-01-22T05:46:09.884Z,0.00
2018-01-22T05:47:09.891Z,0.00
2018-01-22T05:48:09.898Z,0.00
2018-01-22T05:49:09.902Z,0.00
2018-01-22T05:50:09.909Z,0.00
2018-01-22T05:51:09.915Z,0.00
2018-01-22T05:52:09.922Z,0.00
2018-01-22T05:53:09.929Z,0.00
2018-01-22T05:54:09.932Z,0.00
2018-01-22T05:55:09.939Z,0.00
2018-01-22T05:56:09.947Z,0.00
2018-01-22T05:57:09.952Z,0.00
2018-01-22T05:58:09.963Z,0.00
2018-01-22T05:59:09.964Z,0.00
2018-01-22T06:00:09.973Z,0.00
2018-01-22T06:01:09.976Z,0.00
2018-01-22T06:02:09.983Z,0.00
2018-01-22T06:03:09.988Z,0.00
2018-01-22T06:04:09.994Z,0.00
2018-01-22T06:05:09.999Z,0.00
2018-01-22T06:06:10.007Z,0.00
2018-01-22T06:07:10.012Z,0.00
2018-01-22T06:08:10.019Z,0.00
2018-01-22T06:09:10.026Z,0.00
2018-01-22T06:10:10.032Z,0.00
2018-01-22T06:11:10.038Z,0.00
2018-01-22T06:12:10.042Z,0.00
2018-01-22T06:13:10.048Z,0.00
2018-01-22T06:14:10.053Z,0.00
2018-01-22T06:15:10.060Z,0.00
2018-01-22T06:16:10.067Z,0.00
2018-01-22T06:17:10.072Z,0.00
2018-01-22T06:18:10.077Z,0.00
2018-01-22T06:19:10.083Z,0.00
2018-01-22T06:20:10.092Z,0.00
2018-01-22T06:21:10.095Z,0.00
2018-01-22T06:22:10.101Z,0.00
2018-01-22T06:23:10.107Z,0.00
2018-01-22T06:24:10.115Z,0.00
2018-01-22T06:25:10.119Z,0.00
2018-01-22T06:26:10.126Z,0.00
2018-01-22T06:27:10.131Z,0.00
2018-01-22T06:28:10.137Z,0.00
2018-01-22T06:29:10.143Z,0.00
2018-01-22T06:30:10.149Z,0.00
2018-01-22T06:31:10.156Z,0.00
2018-01-22T06:32:10.161Z,0.00
2018-01-22T06:33:10.167Z,0.00
2018-01-22T06:34:10.173Z,0.00
2018-01-22T06:35:10.180Z,0.00
2018-01-22T06:36:10.186Z,0.00
2018-01-22T06:37:10.252Z,0.00
2018-01-22T06:38:10.200Z,0.00
2018-01-22T06:39:10.203Z,0.00
2018-01-22T06:40:10.209Z,0.00
2018-01-22T06:41:10.214Z,0.00
2018-01-22T06:42:10.224Z,0.00
2018-01-22T06:43:10.227Z,0.00
2018-01-22T06:44:10.238Z,0.00
2018-01-22T06:45:10.239Z,0.00
2018-01-22T06:46:10.246Z,4.00
2018-01-22T06:47:10.250Z,0.00
2018-01-22T06:48:10.257Z,0.00
2018-01-22T06:49:10.266Z,0.00
2018-01-22T06:50:10.269Z,0.00
2018-01-22T06:51:10.279Z,4.00
2018-01-22T06:52:10.282Z,0.00
2018-01-22T06:53:10.288Z,4.00
2018-01-22T06:54:10.294Z,4.00
2018-01-22T06:55:10.303Z,0.00
2018-01-22T06:56:10.308Z,4.00
2018-01-22T06:57:10.334Z,4.00
2018-01-22T06:58:10.318Z,0.00
2018-01-22T06:59:10.324Z,4.00
2018-01-22T07:00:10.331Z,4.00
2018-01-22T07:01:10.336Z,4.00
2018-01-22T07:02:10.342Z,4.00
2018-01-22T07:03:10.348Z,4.00
2018-01-22T07:04:10.355Z,4.00
2018-01-22T07:05:10.363Z,4.00
2018-01-22T07:06:10.367Z,8.00
2018-01-22T07:07:10.374Z,4.00
2018-01-22T07:08:10.382Z,8.00
2018-01-22T07:09:10.385Z,8.00
2018-01-22T07:10:10.392Z,8.00
2018-01-22T07:11:10.398Z,8.00
2018-01-22T07:12:10.405Z,8.00
2018-01-22T07:13:10.476Z,8.00
2018-01-22T07:14:10.415Z,8.00
2018-01-22T07:15:10.423Z,8.00
2018-01-22T07:16:10.428Z,12.00
2018-01-22T07:17:10.434Z,12.00
2018-01-22T07:18:10.439Z,12.00
2018-01-22T07:19:10.448Z,12.00
2018-01-22T07:20:10.453Z,16.00
2018-01-22T07:21:10.458Z,16.00
2018-01-22T07:22:10.463Z,16.00
2018-01-22T07:23:10.471Z,16.00
2018-01-22T07:24:10.476Z,16.00
2018-01-22T07:25:10.486Z,20.00
2018-01-22T07:26:10.492Z,16.00
2018-01-22T07:27:10.494Z,20.00
2018-01-22T07:28:10.500Z,24.00
2018-01-22T07:29:10.506Z,24.00
2018-01-22T07:30:10.511Z,24.00
2018-01-22T07:31:10.518Z,28.00
2018-01-22T07:32:10.532Z,32.00
2018-01-22T07:33:10.528Z,32.00
2018-01-22T07:34:10.535Z,32.00
2018-01-22T07:35:10.541Z,32.00
2018-01-22T07:36:10.547Z,36.00
2018-01-22T07:37:10.553Z,36.00
2018-01-22T07:38:10.559Z,36.00
2018-01-22T07:39:10.565Z,32.00
2018-01-22T07:40:10.571Z,36.00
2018-01-22T07:41:10.576Z,36.00
2018-01-22T07:42:10.583Z,32.00
2018-01-22T07:43:10.640Z,32.00
2018-01-22T07:44:10.594Z,32.00
2018-01-22T07:45:10.600Z,36.00
2018-01-22T07:46:10.606Z,32.00
2018-01-22T07:47:10.612Z,32.00
2018-01-22T07:48:10.617Z,32.00
2018-01-22T07:49:10.622Z,36.00
2018-01-22T07:50:10.630Z,36.00
2018-01-22T07:51:10.636Z,40.00
2018-01-22T07:52:10.641Z,44.00
2018-01-22T07:53:10.652Z,44.00
2018-01-22T07:54:10.653Z,44.00
2018-01-22T07:55:10.660Z,44.00
2018-01-22T07:56:10.665Z,44.00
2018-01-22T07:57:10.670Z,40.00
2018-01-22T07:58:10.675Z,44.00
2018-01-22T07:59:10.682Z,48.00
2018-01-22T08:00:10.724Z,52.00
2018-01-22T08:01:10.694Z,56.00
2018-01-22T08:02:10.702Z,56.00
2018-01-22T08:03:10.706Z,56.00
2018-01-22T08:04:10.713Z,56.00
2018-01-22T08:05:10.718Z,60.00
2018-01-22T08:06:10.724Z,64.00
2018-01-22T08:07:10.730Z,68.00
2018-01-22T08:08:10.735Z,64.00
2018-01-22T08:09:10.741Z,72.00
2018-01-22T08:10:10.749Z,76.00
2018-01-22T08:11:10.754Z,72.00
2018-01-22T08:12:10.761Z,80.00
2018-01-22T08:13:10.768Z,76.00
2018-01-22T08:14:10.826Z,80.00
2018-01-22T08:15:10.779Z,72.00
2018-01-22T08:16:10.783Z,68.00
2018-01-22T08:17:10.794Z,60.00
2018-01-22T08:18:10.795Z,60.00
2018-01-22T08:19:10.801Z,56.00
2018-01-22T08:20:10.835Z,60.00
2018-01-22T08:21:10.814Z,64.00
2018-01-22T08:22:10.819Z,68.00
2018-01-22T08:23:10.826Z,72.00
2018-01-22T08:24:10.835Z,80.00
2018-01-22T08:25:10.838Z,80.00
2018-01-22T08:26:10.843Z,84.00
2018-01-22T08:27:10.850Z,84.00
2018-01-22T08:28:10.855Z,84.00
2018-01-22T08:29:10.861Z,88.00
2018-01-22T08:30:10.873Z,92.00
2018-01-22T08:31:10.872Z,96.00
2018-01-22T08:32:10.879Z,100.00
2018-01-22T08:33:10.882Z,100.00
2018-01-22T08:34:10.892Z,108.00
2018-01-22T08:35:10.897Z,112.00
2018-01-22T08:36:10.903Z,116.00
2018-01-22T08:37:10.905Z,116.00
2018-01-22T08:38:10.913Z,124.00
2018-01-22T08:39:10.919Z,124.00
2018-01-22T08:40:10.928Z,124.00
2018-01-22T08:41:10.931Z,120.00
2018-01-22T08:42:10.936Z,124.00
2018-01-22T08:43:10.942Z,120.00
2018-01-22T08:44:10.950Z,116.00
2018-01-22T08:45:10.954Z,108.00
2018-01-22T08:46:10.963Z,104.00
2018-01-22T08:47:10.966Z,104.00
2018-01-22T08:48:10.972Z,116.00
2018-01-22T08:49:10.977Z,120.00
2018-01-22T08:50:10.984Z,124.00
2018-01-22T08:51:10.990Z,132.00
2018-01-22T08:52:10.994Z,136.00
2018-01-22T08:53:11.019Z,144.00
2018-01-22T08:54:11.007Z,144.00
2018-01-22T08:55:11.014Z,144.00
2018-01-22T08:56:11.018Z,140.00
2018-01-22T08:57:11.028Z,136.00
2018-01-22T08:58:11.029Z,132.00
2018-01-22T08:59:11.039Z,128.00
2018-01-22T09:00:11.042Z,128.00
2018-01-22T09:01:11.047Z,124.00
2018-01-22T09:02:11.056Z,128.00
2018-01-22T09:03:11.060Z,132.00
2018-01-22T09:04:11.065Z,136.00
2018-01-22T09:05:11.073Z,136.00
2018-01-22T09:06:11.078Z,132.00
2018-01-22T09:07:11.084Z,128.00
2018-01-22T09:08:11.090Z,120.00
2018-01-22T09:09:11.094Z,124.00
2018-01-22T09:10:11.100Z,132.00
2018-01-22T09:11:11.107Z,148.00
2018-01-22T09:12:11.113Z,168.00
2018-01-22T09:13:11.119Z,176.00
2018-01-22T09:14:11.124Z,168.00
2018-01-22T09:15:11.133Z,152.00
2018-01-22T09:16:11.137Z,144.00
2018-01-22T09:17:11.141Z,148.00
2018-01-22T09:18:11.148Z,160.00
2018-01-22T09:19:11.152Z,176.00
2018-01-22T09:20:11.160Z,180.00
2018-01-22T09:21:11.165Z,192.00
2018-01-22T09:22:11.171Z,192.00
2018-01-22T09:23:11.183Z,200.00
2018-01-22T09:24:11.185Z,192.00
2018-01-22T09:25:11.196Z,180.00
2018-01-22T09:26:11.195Z,156.00
2018-01-22T09:27:11.202Z,156.00
2018-01-22T09:28:11.207Z,168.00
2018-01-22T09:29:11.212Z,188.00
2018-01-22T09:30:11.217Z,200.00
2018-01-22T09:31:11.224Z,208.00
2018-01-22T09:32:11.232Z,204.00
2018-01-22T09:33:11.237Z,184.00
2018-01-22T09:34:11.251Z,180.00
2018-01-22T09:35:11.250Z,184.00
2018-01-22T09:36:11.257Z,188.00
2018-01-22T09:37:11.262Z,192.00
2018-01-22T09:38:11.265Z,192.00
2018-01-22T09:39:11.271Z,192.00
2018-01-22T09:40:11.281Z,188.00
2018-01-22T09:41:11.282Z,188.00
2018-01-22T09:42:11.291Z,184.00
2018-01-22T09:43:11.296Z,184.00
2018-01-22T09:44:11.302Z,188.00
2018-01-22T09:45:11.307Z,200.00
2018-01-22T09:46:11.312Z,192.00
2018-01-22T09:47:11.322Z,188.00
2018-01-22T09:48:11.325Z,192.00
2018-01-22T09:49:11.330Z,188.00
2018-01-22T09:50:11.342Z,184.00
2018-01-22T09:51:11.342Z,180.00
2018-01-22T09:52:11.384Z,164.00
2018-01-22T09:53:11.357Z,144.00
2018-01-22T09:54:11.409Z,148.00
2018-01-22T09:55:11.369Z,156.00
2018-01-22T09:56:11.371Z,164.00
2018-01-22T09:57:11.378Z,164.00
2018-01-22T09:58:11.388Z,172.00
2018-01-22T09:59:11.390Z,192.00
2018-01-22T10:00:11.399Z,212.00
2018-01-22T10:01:11.401Z,224.00
2018-01-22T10:02:11.409Z,232.00
2018-01-22T10:03:11.415Z,252.00
2018-01-22T10:04:11.422Z,276.00
2018-01-22T10:05:11.427Z,292.00
2018-01-22T10:06:11.432Z,316.00
2018-01-22T10:07:11.438Z,336.00
2018-01-22T10:08:11.446Z,308.00
2018-01-22T10:09:11.450Z,268.00
2018-01-22T10:10:11.457Z,236.00
2018-01-22T10:11:11.464Z,224.00
2018-01-22T10:12:11.470Z,232.00
2018-01-22T10:13:11.475Z,240.00
2018-01-22T10:14:11.480Z,260.00
2018-01-22T10:15:11.498Z,268.00
2018-01-22T10:16:11.492Z,260.00
2018-01-22T10:17:11.499Z,252.00
2018-01-22T10:18:11.504Z,232.00
2018-01-22T10:19:11.509Z,232.00
2018-01-22T10:20:11.516Z,228.00
2018-01-22T10:21:11.523Z,228.00
2018-01-22T10:22:11.531Z,236.00
2018-01-22T10:23:11.536Z,232.00
2018-01-22T10:24:11.542Z,232.00
2018-01-22T10:25:11.549Z,228.00
2018-01-22T10:26:11.557Z,216.00
2018-01-22T10:27:11.556Z,188.00
2018-01-22T10:28:11.564Z,172.00
2018-01-22T10:29:11.611Z,160.00
2018-01-22T10:30:11.577Z,148.00
2018-01-22T10:31:11.584Z,140.00
2018-01-22T10:32:11.588Z,124.00
2018-01-22T10:33:11.593Z,112.00
2018-01-22T10:34:11.601Z,104.00
2018-01-22T10:35:11.606Z,100.00
2018-01-22T10:36:11.619Z,96.00
2018-01-22T10:37:11.618Z,84.00
2018-01-22T10:38:11.625Z,88.00
2018-01-22T10:39:11.629Z,84.00
2018-01-22T10:40:11.635Z,84.00
2018-01-22T10:41:11.644Z,88.00
2018-01-22T10:42:11.649Z,92.00
2018-01-22T10:43:11.652Z,84.00
2018-01-22T10:44:11.658Z,88.00
2018-01-22T10:45:11.664Z,100.00
2018-01-22T10:46:11.673Z,124.00
2018-01-22T10:47:11.676Z,136.00
2018-01-22T10:48:11.682Z,152.00
2018-01-22T10:49:11.689Z,168.00
2018-01-22T10:50:11.694Z,188.00
2018-01-22T10:51:11.699Z,224.00
2018-01-22T10:52:11.707Z,252.00
2018-01-22T10:53:11.713Z,268.00
2018-01-22T10:54:11.718Z,292.00
2018-01-22T10:55:11.725Z,328.00
2018-01-22T10:56:11.730Z,364.00
2018-01-22T10:57:11.735Z,376.00
2018-01-22T10:58:11.744Z,360.00
2018-01-22T10:59:11.749Z,352.00
2018-01-22T11:00:11.759Z,364.00
2018-01-22T11:01:11.763Z,340.00
2018-01-22T11:02:11.769Z,304.00
2018-01-22T11:03:11.774Z,280.00
2018-01-22T11:04:11.779Z,288.00
2018-01-22T11:05:11.786Z,300.00
2018-01-22T11:06:11.792Z,316.00
2018-01-22T11:07:11.799Z,328.00
2018-01-22T11:08:11.807Z,348.00
2018-01-22T11:09:11.811Z,376.00
2018-01-22T11:10:11.818Z,404.00
2018-01-22T11:11:11.825Z,396.00
2018-01-22T11:12:11.832Z,376.00
2018-01-22T11:13:11.837Z,352.00
2018-01-22T11:14:11.845Z,344.00
2018-01-22T11:15:11.878Z,328.00
2018-01-22T11:16:11.866Z,316.00
2018-01-22T11:17:11.880Z,288.00
2018-01-22T11:18:11.881Z,308.00
2018-01-22T11:19:11.920Z,356.00
2018-01-22T11:20:12.153Z,376.00
2018-01-22T11:21:11.907Z,384.00
2018-01-22T11:22:11.909Z,400.00
2018-01-22T11:23:11.947Z,440.00
2018-01-22T11:24:12.253Z,524.00
2018-01-22T11:25:11.957Z,588.00
2018-01-22T11:26:12.202Z,564.00
2018-01-22T11:27:15.568Z,508.00
2018-01-22T11:28:14.066Z,480.00
2018-01-22T11:29:13.373Z,432.00
2018-01-22T11:30:11.951Z,396.00
2018-01-22T11:31:11.958Z,360.00
2018-01-22T11:32:11.968Z,336.00
2018-01-22T11:33:11.973Z,308.00
2018-01-22T11:34:11.980Z,280.00
2018-01-22T11:35:11.989Z,340.00
2018-01-22T11:36:11.995Z,392.00
2018-01-22T11:37:12.004Z,376.00
2018-01-22T11:38:12.009Z,364.00
2018-01-22T11:39:12.013Z,348.00
2018-01-22T11:40:12.020Z,464.00
2018-01-22T11:41:12.027Z,520.00
2018-01-22T11:42:12.033Z,508.00
2018-01-22T11:43:12.041Z,484.00
2018-01-22T11:44:12.045Z,456.00
2018-01-22T11:45:12.052Z,428.00
2018-01-22T11:46:12.059Z,464.00
2018-01-22T11:47:12.066Z,480.00
2018-01-22T11:48:12.071Z,464.00
2018-01-22T11:49:12.078Z,448.00
2018-01-22T11:50:12.085Z,488.00
2018-01-22T11:51:12.092Z,548.00
2018-01-22T11:52:12.098Z,616.00
2018-01-22T11:53:12.105Z,632.00
2018-01-22T11:54:12.111Z,596.00
2018-01-22T11:55:12.121Z,620.00
2018-01-22T11:56:12.124Z,600.00
2018-01-22T11:57:12.130Z,552.00
2018-01-22T11:58:12.140Z,536.00
2018-01-22T11:59:12.148Z,564.00
2018-01-22T12:00:12.153Z,600.00
2018-01-22T12:01:12.159Z,556.00
2018-01-22T12:02:12.167Z,516.00
2018-01-22T12:03:12.172Z,472.00
2018-01-22T12:04:12.180Z,476.00
2018-01-22T12:05:12.185Z,544.00
2018-01-22T12:06:12.192Z,576.00
2018-01-22T12:07:12.197Z,568.00
2018-01-22T12:08:12.206Z,572.00
2018-01-22T12:09:12.211Z,564.00
2018-01-22T12:10:12.220Z,572.00
2018-01-22T12:11:12.228Z,580.00
2018-01-22T12:12:12.233Z,564.00
2018-01-22T12:13:12.239Z,516.00
2018-01-22T12:14:12.247Z,468.00
2018-01-22T12:15:12.254Z,428.00
2018-01-22T12:16:12.263Z,388.00
2018-01-22T12:17:12.266Z,360.00
2018-01-22T12:18:12.274Z,360.00
2018-01-22T12:19:12.280Z,364.00
2018-01-22T12:20:12.287Z,424.00
2018-01-22T12:21:12.296Z,544.00
2018-01-22T12:22:12.300Z,604.00
2018-01-22T12:23:12.311Z,620.00
2018-01-22T12:24:12.316Z,668.00
2018-01-22T12:25:12.321Z,580.00
2018-01-22T12:26:12.330Z,500.00
2018-01-22T12:27:12.363Z,528.00
2018-01-22T12:28:12.343Z,568.00
2018-01-22T12:29:12.349Z,672.00
2018-01-22T12:30:12.356Z,764.00
2018-01-22T12:31:12.361Z,920.00
2018-01-22T12:32:12.371Z,988.00
2018-01-22T12:33:12.377Z,1028.00
2018-01-22T12:34:12.381Z,1000.00
2018-01-22T12:35:12.392Z,944.00
2018-01-22T12:36:12.398Z,928.00
2018-01-22T12:37:12.404Z,864.00
2018-01-22T12:38:12.410Z,852.00
2018-01-22T12:39:12.417Z,860.00
2018-01-22T12:40:12.433Z,788.00
2018-01-22T12:41:12.433Z,784.00
2018-01-22T12:42:12.439Z,892.00
2018-01-22T12:43:12.450Z,940.00
2018-01-22T12:44:12.453Z,768.00
2018-01-22T12:45:12.462Z,556.00
2018-01-22T12:46:12.468Z,476.00
2018-01-22T12:47:12.476Z,428.00
2018-01-22T12:48:12.484Z,392.00
2018-01-22T12:49:12.492Z,340.00
2018-01-22T12:50:12.498Z,348.00
2018-01-22T12:51:12.506Z,404.00
2018-01-22T12:52:12.515Z,520.00
2018-01-22T12:53:12.520Z,676.00
2018-01-22T12:54:12.529Z,756.00
2018-01-22T12:55:12.536Z,748.00
2018-01-22T12:56:12.544Z,696.00
2018-01-22T12:57:12.552Z,616.00
2018-01-22T12:58:12.559Z,492.00